Bobo Dioulasso Airport

Jump to: basic info | weather | frequencies | runways | comments

Related pages: nearby airports | nearby navaids | notams | map

Basic information (top)

Codes: BOY DFOO
Location: lon 11.160100, lat -4.330970, elev 1,511 ft / 461 m msl
Status: medium_airport
Scheduled airline service: yes
Links: Wikipedia Mobile

Weather (top)

Current conditions (rec'd 2014/02/04 08:00Z):

DFOO 040800Z 02004KT 8000 NSC 20/02 Q1013

Airport forecast (rec'd 2014/04/15 18:38Z):

TAF DFOO 151700Z 1518/1618 18008KT 9999 FEW020 PROB30 
      TEMPO 1521/1606 4000 TSRA SCT020 FEW040CB PROB30 
      TEMPO 1612/1618 TS FEW020 FEW040CB

Frequencies (top)

Verify before use: may be inaccurate or out of date.

A/G: 667.3 MHz (AG VOICE RDO)
TWR: 119.7 MHz (TWR)

Runways (top)

06/24: 10,826 x 148 ft (3,300 x 45 m) — paved — lighted

Latest comments (top)

No comments yet for Bobo Dioulasso Airport

More... (top)

See also NOTAMs and nearby airports and navaids, or visit the Bobo Dioulasso Airport page at the main OurAirports website..